Time;durP1;ratioP1;P1;durP2;ratioP2;P2;SDS_P1;SDS_P2;PMS_P1;PMS_P2;Temp;Humidity;BMP_temperature;BMP_pressure;BME280_temperature;BME280_humidity;BME280_pressure;Samples;Min_cycle;Max_cycle;Signal;HPM_P1;HPM_P2
2021/03/31 00:00:24;;;;;;;;;;;;;;;20.28;35.75;101983.94;5116683;28;857;-50
2021/03/31 00:02:50;;;;;;;;;;;;;;;20.23;36.04;101987.53;5116846;28;858;-53
2021/03/31 00:05:16;;;;;;;;;;;;;;;19.72;37.08;101992.72;5117053;28;712;-55
2021/03/31 00:07:41;;;;;;;;;;;;;;;19.34;38.05;101987.19;5116534;28;1013;-54
2021/03/31 00:10:20;;;;;;;;;;;;;;;20.35;35.78;101985.34;5116770;28;807;-50
2021/03/31 00:12:46;;;;;;;;;;;;;;;20.47;35.57;101987.06;5116938;28;767;-52
2021/03/31 00:15:12;;;;;;;;;;;;;;;20.29;36.00;101980.09;5116634;28;822;-52
2021/03/31 00:17:37;;;;;;;;;;;;;;;19.89;36.62;101979.59;5116806;28;2001;-55
2021/03/31 00:20:03;;;;;;;;;;;;;;;19.59;37.05;101983.78;5116646;28;794;-50
2021/03/31 00:22:28;;;;;;;;;;;;;;;19.80;36.89;101976.50;5116377;28;950;-55
2021/03/31 00:24:53;;;;;;;;;;;;;;;20.67;35.26;101978.00;5116589;28;802;-55
2021/03/31 00:27:19;;;;;;;;;;;;;;;20.41;35.51;101977.09;5081960;28;1213;-55
2021/03/31 00:29:48;;;;;;;;;;;;;;;20.35;35.88;101979.00;5120631;28;806;-53
2021/03/31 00:32:13;;;;;;;;;;;;;;;19.76;36.66;101972.59;5120651;28;867;-56
2021/03/31 00:34:39;;;;;;;;;;;;;;;19.29;37.95;101970.59;5120869;28;727;-52
2021/03/31 00:37:04;;;;;;;;;;;;;;;20.32;35.79;101977.59;5119887;28;1975;-56
2021/03/31 00:39:30;;;;;;;;;;;;;;;20.55;35.34;101975.47;5120941;28;816;-55
2021/03/31 00:41:55;;;;;;;;;;;;;;;20.34;35.83;101977.34;5120637;28;819;-53
2021/03/31 00:44:20;;;;;;;;;;;;;;;20.06;36.13;101970.31;5120384;28;823;-52
2021/03/31 00:46:46;;;;;;;;;;;;;;;19.49;37.60;101973.50;5120488;28;807;-49
2021/03/31 00:49:11;;;;;;;;;;;;;;;19.72;36.98;101968.69;5120448;28;823;-50
2021/03/31 00:51:37;;;;;;;;;;;;;;;20.54;35.58;101967.47;5119948;28;1109;-51
2021/03/31 00:54:03;;;;;;;;;;;;;;;20.35;35.67;101966.00;5102232;28;1094;-54
2021/03/31 00:56:30;;;;;;;;;;;;;;;20.35;35.69;101970.72;5120712;28;779;-53
2021/03/31 00:58:55;;;;;;;;;;;;;;;19.83;36.60;101961.34;5119920;28;1917;-54
2021/03/31 01:01:20;;;;;;;;;;;;;;;19.32;37.71;101962.63;5102027;28;767;-56
2021/03/31 01:03:46;;;;;;;;;;;;;;;20.09;36.31;101959.56;5120322;28;747;-55
2021/03/31 01:06:11;;;;;;;;;;;;;;;20.60;35.43;101956.16;5100781;28;993;-54
2021/03/31 01:08:37;;;;;;;;;;;;;;;20.24;35.90;101955.22;5120345;28;755;-55
2021/03/31 01:11:02;;;;;;;;;;;;;;;20.06;36.26;101950.97;5120150;28;854;-52
2021/03/31 01:13:42;;;;;;;;;;;;;;;19.67;36.96;101952.94;5119841;28;739;-54
2021/03/31 01:16:13;;;;;;;;;;;;;;;19.72;37.31;101957.66;5102073;28;767;-55
2021/03/31 01:18:42;;;;;;;;;;;;;;;20.57;35.24;101950.34;5120143;28;1972;-54
2021/03/31 01:21:14;;;;;;;;;;;;;;;20.48;35.35;101958.31;5100938;28;966;-55
2021/03/31 01:23:58;;;;;;;;;;;;;;;20.21;35.79;101955.75;5119864;28;782;-54
2021/03/31 01:26:33;;;;;;;;;;;;;;;19.76;36.93;101952.47;5120155;28;779;-55
2021/03/31 01:29:02;;;;;;;;;;;;;;;19.48;37.44;101952.53;5101807;28;766;-53
2021/03/31 01:31:31;;;;;;;;;;;;;;;20.48;35.48;101944.50;5119892;28;863;-53
2021/03/31 01:33:56;;;;;;;;;;;;;;;20.60;35.09;101938.75;5119672;28;788;-52
2021/03/31 01:36:22;;;;;;;;;;;;;;;20.31;35.88;101944.75;5118890;28;958;-54
2021/03/31 01:38:48;;;;;;;;;;;;;;;20.06;36.04;101949.03;5100626;28;1977;-52
2021/03/31 01:41:14;;;;;;;;;;;;;;;19.76;36.65;101945.00;5101192;28;764;-55
2021/03/31 01:43:39;;;;;;;;;;;;;;;19.90;36.61;101950.09;5100951;28;823;-54
2021/03/31 01:46:05;;;;;;;;;;;;;;;20.69;35.12;101942.66;5119333;28;812;-52
2021/03/31 01:48:31;;;;;;;;;;;;;;;20.39;35.71;101946.16;5101151;28;835;-55
2021/03/31 01:50:58;;;;;;;;;;;;;;;20.29;35.89;101946.94;5118749;28;1161;-55
2021/03/31 01:53:23;;;;;;;;;;;;;;;19.71;36.94;101950.47;5100709;28;1061;-55
2021/03/31 01:55:52;;;;;;;;;;;;;;;19.37;37.51;101952.72;5101195;28;553;-51
2021/03/31 01:58:18;;;;;;;;;;;;;;;20.10;36.30;101939.13;5100875;28;1957;-53
2021/03/31 02:00:43;;;;;;;;;;;;;;;20.57;35.07;101942.06;5119433;28;763;-54
2021/03/31 02:03:09;;;;;;;;;;;;;;;20.34;35.67;101945.03;5101057;28;752;-56
2021/03/31 02:05:34;;;;;;;;;;;;;;;20.26;35.61;101953.84;5100639;28;787;-54
2021/03/31 02:08:00;;;;;;;;;;;;;;;19.74;36.87;101949.97;5118677;28;1009;-54
2021/03/31 02:10:25;;;;;;;;;;;;;;;19.38;37.56;101954.41;5100877;28;751;-52
2021/03/31 02:12:50;;;;;;;;;;;;;;;20.37;35.80;101963.00;5118589;28;755;-53
2021/03/31 02:15:21;;;;;;;;;;;;;;;20.45;35.30;101950.59;5100984;28;739;-56
2021/03/31 02:17:47;;;;;;;;;;;;;;;20.16;36.01;101960.16;5100553;28;1929;-56
2021/03/31 02:20:16;;;;;;;;;;;;;;;19.90;36.40;101961.13;5100320;28;795;-55
2021/03/31 02:22:41;;;;;;;;;;;;;;;19.53;37.37;101961.94;5118716;28;1009;-55
2021/03/31 02:25:07;;;;;;;;;;;;;;;19.60;37.24;101957.03;5118751;28;802;-53
2021/03/31 02:27:32;;;;;;;;;;;;;;;20.53;35.46;101963.88;5100048;28;779;-56
2021/03/31 02:29:58;;;;;;;;;;;;;;;20.38;35.67;101963.81;5099728;28;842;-56
2021/03/31 02:32:24;;;;;;;;;;;;;;;20.28;35.72;101957.16;5100704;28;843;-55
2021/03/31 02:34:52;;;;;;;;;;;;;;;19.81;36.63;101956.09;5099235;28;817;-52
2021/03/31 02:37:18;;;;;;;;;;;;;;;19.59;37.18;101966.41;5117942;28;1910;-50
2021/03/31 02:39:45;;;;;;;;;;;;;;;19.90;36.57;101967.47;5118577;28;791;-55
2021/03/31 02:42:11;;;;;;;;;;;;;;;20.70;35.17;101962.84;5118357;28;808;-52
2021/03/31 02:44:40;;;;;;;;;;;;;;;21.26;33.93;101956.56;5118314;28;835;-53
2021/03/31 02:47:05;;;;;;;;;;;;;;;20.67;34.93;101964.19;5118153;28;787;-56
2021/03/31 02:49:30;;;;;;;;;;;;;;;20.42;35.63;101951.13;5099573;28;1125;-56
2021/03/31 02:51:57;;;;;;;;;;;;;;;19.93;36.49;101960.59;5099080;28;1023;-54
2021/03/31 02:54:23;;;;;;;;;;;;;;;19.51;37.19;101964.16;5118216;28;782;-55
2021/03/31 02:56:48;;;;;;;;;;;;;;;19.66;37.25;101967.84;5117979;28;814;-56
2021/03/31 02:59:14;;;;;;;;;;;;;;;20.52;35.40;101963.06;5118400;28;1988;-55
2021/03/31 03:01:39;;;;;;;;;;;;;;;20.42;35.58;101974.06;5099420;28;777;-54
2021/03/31 03:04:05;;;;;;;;;;;;;;;20.38;35.43;101967.41;5099479;28;1001;-50
2021/03/31 03:06:30;;;;;;;;;;;;;;;19.86;36.43;101976.56;5117533;28;930;-52
2021/03/31 03:08:56;;;;;;;;;;;;;;;19.40;37.38;101977.84;5099402;28;825;-53
2021/03/31 03:11:22;;;;;;;;;;;;;;;19.65;37.02;101968.94;5117727;28;795;-47
2021/03/31 03:13:47;;;;;;;;;;;;;;;20.60;35.37;101974.69;5117761;28;878;-51
2021/03/31 03:16:13;;;;;;;;;;;;;;;20.31;35.92;101973.22;5097295;28;899;-55
2021/03/31 03:18:39;;;;;;;;;;;;;;;20.37;35.84;101971.28;5099388;28;1913;-53
2021/03/31 03:21:04;;;;;;;;;;;;;;;19.72;36.79;101968.69;5117530;28;1017;-58
2021/03/31 03:23:30;;;;;;;;;;;;;;;19.44;37.56;101975.41;5098806;28;927;-60
2021/03/31 03:25:55;;;;;;;;;;;;;;;20.36;35.79;101975.16;5117131;28;819;-54
2021/03/31 03:28:21;;;;;;;;;;;;;;;20.47;35.42;101965.78;5099285;28;739;-58
2021/03/31 03:30:47;;;;;;;;;;;;;;;20.31;35.55;101967.69;5117194;28;755;-54
2021/03/31 03:33:12;;;;;;;;;;;;;;;19.99;36.36;101973.31;5099281;28;803;-57
2021/03/31 03:35:38;;;;;;;;;;;;;;;19.59;36.93;101969.19;5099320;28;797;-50
2021/03/31 03:38:03;;;;;;;;;;;;;;;19.82;36.83;101981.75;5116702;28;1980;-56
2021/03/31 03:40:28;;;;;;;;;;;;;;;20.78;34.71;101971.44;5098937;28;763;-56
2021/03/31 03:42:54;;;;;;;;;;;;;;;20.40;35.47;101973.50;5117564;28;755;-57
2021/03/31 03:45:21;;;;;;;;;;;;;;;20.40;35.47;101964.38;5116965;28;762;-59
2021/03/31 03:47:46;;;;;;;;;;;;;;;19.78;36.63;101975.94;5116842;28;854;-55
2021/03/31 03:50:12;;;;;;;;;;;;;;;19.38;37.41;101977.28;5098093;28;1043;-53
2021/03/31 03:52:38;;;;;;;;;;;;;;;20.41;35.62;101977.09;5116883;28;958;-58
2021/03/31 03:55:04;;;;;;;;;;;;;;;20.47;35.30;101965.78;5115042;28;823;-53
2021/03/31 03:57:29;;;;;;;;;;;;;;;20.28;35.57;101981.19;5097783;28;2363;-54
2021/03/31 03:59:55;;;;;;;;;;;;;;;20.01;36.27;101984.94;5115637;28;1104;-58
2021/03/31 04:02:20;;;;;;;;;;;;;;;19.39;37.56;101991.91;5116273;28;786;-56
2021/03/31 04:04:46;;;;;;;;;;;;;;;19.92;36.33;101983.75;5116775;28;803;-58
2021/03/31 04:07:11;;;;;;;;;;;;;;;20.66;34.82;101990.16;5116345;28;1005;-59
2021/03/31 04:09:37;;;;;;;;;;;;;;;20.22;35.51;101985.88;5117283;28;802;-62
2021/03/31 04:12:03;;;;;;;;;;;;;;;20.20;35.68;101990.00;5121980;27;1183;-57
2021/03/31 04:14:28;;;;;;;;;;;;;;;19.67;36.57;102002.63;5098821;28;846;-59
2021/03/31 04:16:54;;;;;;;;;;;;;;;19.55;36.91;101999.22;5110004;28;1320;-57
2021/03/31 04:19:19;;;;;;;;;;;;;;;20.32;35.55;101998.88;5095517;28;1914;-53
2021/03/31 04:21:45;;;;;;;;;;;;;;;20.57;35.12;102000.09;5098135;28;911;-57
2021/03/31 04:24:11;;;;;;;;;;;;;;;20.14;35.59;101995.47;5116434;28;1142;-51
2021/03/31 04:26:37;;;;;;;;;;;;;;;20.00;35.95;101999.81;5116556;28;850;-58
2021/03/31 04:29:02;;;;;;;;;;;;;;;19.56;36.81;102000.03;5098524;28;802;-53
2021/03/31 04:31:28;;;;;;;;;;;;;;;19.80;36.65;102006.88;5097442;28;1097;-54
2021/03/31 04:33:54;;;;;;;;;;;;;;;20.63;34.93;101996.25;5098223;28;843;-55
2021/03/31 04:36:19;;;;;;;;;;;;;;;20.30;35.58;101992.78;5116579;28;1229;-59
2021/03/31 04:38:45;;;;;;;;;;;;;;;20.35;35.55;101998.34;5116223;28;1914;-56
2021/03/31 04:41:10;;;;;;;;;;;;;;;19.73;36.65;102003.50;5116077;28;739;-54
2021/03/31 04:43:36;;;;;;;;;;;;;;;19.31;37.31;102002.31;5116500;28;843;-47
2021/03/31 04:46:02;;;;;;;;;;;;;;;19.62;37.07;102004.50;5116320;28;787;-46
2021/03/31 04:48:27;;;;;;;;;;;;;;;20.52;35.15;102001.75;5097890;28;1229;-50
2021/03/31 04:50:53;;;;;;;;;;;;;;;20.11;35.64;102004.31;5116479;28;995;-55
2021/03/31 04:53:18;;;;;;;;;;;;;;;20.29;35.36;101997.50;5116224;28;806;-52
2021/03/31 04:55:44;;;;;;;;;;;;;;;19.71;36.77;102000.16;5116143;28;786;-45
2021/03/31 04:58:09;;;;;;;;;;;;;;;19.27;37.51;102008.63;5116491;28;1913;-56
2021/03/31 05:00:34;;;;;;;;;;;;;;;20.15;35.73;102008.19;5097621;28;883;-52
2021/03/31 05:03:00;;;;;;;;;;;;;;;20.49;35.13;102013.31;5114357;28;1001;-49
2021/03/31 05:05:26;;;;;;;;;;;;;;;20.30;35.29;102006.59;5115169;28;824;-45
2021/03/31 05:07:51;;;;;;;;;;;;;;;20.11;35.67;102009.81;5115730;28;871;-46
2021/03/31 05:10:17;;;;;;;;;;;;;;;19.37;37.23;102013.41;5115608;28;906;-47
2021/03/31 05:12:42;;;;;;;;;;;;;;;19.73;36.83;102010.94;5116125;28;1138;-57
2021/03/31 05:15:08;;;;;;;;;;;;;;;20.59;35.01;102017.22;5119295;28;823;-55
2021/03/31 05:17:33;;;;;;;;;;;;;;;20.27;35.52;102018.19;5118628;28;1977;-54
2021/03/31 05:19:59;;;;;;;;;;;;;;;20.37;35.24;102014.66;5119907;28;799;-48
2021/03/31 05:22:25;;;;;;;;;;;;;;;19.89;36.05;102020.19;5119694;28;874;-51
2021/03/31 05:24:50;;;;;;;;;;;;;;;19.43;37.33;102017.88;5119220;28;870;-57
2021/03/31 05:27:16;;;;;;;;;;;;;;;20.32;35.33;102019.03;5119548;28;886;-53
2021/03/31 05:29:41;;;;;;;;;;;;;;;20.52;34.99;102018.31;5101116;28;972;-57
2021/03/31 05:32:07;;;;;;;;;;;;;;;20.33;35.49;102025.41;5118843;28;965;-53
2021/03/31 05:34:32;;;;;;;;;;;;;;;20.21;35.54;102022.03;5119945;28;778;-55
2021/03/31 05:36:58;;;;;;;;;;;;;;;19.60;36.93;102032.38;5120025;28;795;-56
2021/03/31 05:39:23;;;;;;;;;;;;;;;19.79;36.53;102034.72;5120274;27;1909;-53
2021/03/31 05:41:48;;;;;;;;;;;;;;;20.68;34.61;102033.03;5130670;27;718;-58
2021/03/31 05:44:14;;;;;;;;;;;;;;;20.35;35.41;102025.97;5131031;27;837;-58
2021/03/31 05:46:40;;;;;;;;;;;;;;;20.40;35.21;102020.47;5136444;27;934;-56
2021/03/31 05:49:06;;;;;;;;;;;;;;;19.65;36.46;102023.28;5100724;28;1601;-55
2021/03/31 05:51:31;;;;;;;;;;;;;;;19.71;36.79;102036.03;5109279;27;1213;-61
2021/03/31 05:53:57;;;;;;;;;;;;;;;20.55;35.05;102021.63;5134931;27;854;-59
2021/03/31 05:56:22;;;;;;;;;;;;;;;20.39;34.92;102023.50;5139489;27;771;-57
2021/03/31 05:58:48;;;;;;;;;;;;;;;20.33;35.09;102020.72;5121266;27;1918;-49
2021/03/31 06:01:14;;;;;;;;;;;;;;;20.07;35.81;102022.50;5121111;27;844;-55
2021/03/31 06:03:39;;;;;;;;;;;;;;;19.68;36.72;102020.00;5119527;27;945;-58
2021/03/31 06:06:05;;;;;;;;;;;;;;;19.49;37.17;102016.84;5119226;28;820;-45
2021/03/31 06:08:31;;;;;;;;;;;;;;;20.43;35.32;102014.41;5118560;28;803;-54
2021/03/31 06:10:59;;;;;;;;;;;;;;;20.72;34.46;102021.44;5100858;28;818;-47
2021/03/31 06:13:25;;;;;;;;;;;;;;;20.36;35.06;102019.34;5119392;28;1099;-60
2021/03/31 06:15:50;;;;;;;;;;;;;;;20.11;35.73;102012.59;5118224;28;858;-64
2021/03/31 06:18:16;;;;;;;;;;;;;;;19.90;36.05;102016.34;5102102;28;1910;-60
2021/03/31 06:20:47;;;;;;;;;;;;;;;20.44;35.23;102013.31;5098596;28;815;-51
2021/03/31 06:23:50;;;;;;;;;;;;;;;20.74;35.19;102020.06;5097753;28;822;-59
2021/03/31 06:26:23;;;;;;;;;;;;;;;20.22;36.32;102023.72;5097507;28;771;-60
2021/03/31 06:28:55;;;;;;;;;;;;;;;19.95;36.45;102008.06;5098177;28;815;-59
2021/03/31 06:31:21;;;;;;;;;;;;;;;20.26;36.23;102014.59;5097553;28;942;-64
2021/03/31 06:33:47;;;;;;;;;;;;;;;20.60;35.36;102027.19;5118115;28;962;-50
2021/03/31 06:36:13;;;;;;;;;;;;;;;20.94;34.91;102012.94;5118489;28;839;-47
2021/03/31 06:38:46;;;;;;;;;;;;;;;20.57;35.76;102019.44;5117825;28;1917;-62
2021/03/31 06:41:12;;;;;;;;;;;;;;;20.38;36.04;102016.31;5101452;28;864;-47
2021/03/31 06:43:48;;;;;;;;;;;;;;;20.06;36.34;102009.78;5118121;28;862;-62
2021/03/31 06:46:21;;;;;;;;;;;;;;;20.71;35.39;102017.84;5118119;28;770;-55
2021/03/31 06:48:49;;;;;;;;;;;;;;;21.00;34.57;102018.22;5080667;28;1294;-63
2021/03/31 06:51:25;;;;;;;;;;;;;;;20.65;35.40;102016.13;5079738;28;1131;-61
2021/03/31 06:53:50;;;;;;;;;;;;;;;20.51;35.41;102016.66;5079304;28;851;-60
2021/03/31 06:56:20;;;;;;;;;;;;;;;19.78;37.26;102019.25;5097505;28;807;-65
2021/03/31 06:58:45;;;;;;;;;;;;;;;20.51;35.51;102024.13;5079232;28;1914;-60
2021/03/31 07:01:43;;;;;;;;;;;;;;;21.04;34.82;102018.47;5078974;28;1330;-59
2021/03/31 07:04:09;;;;;;;;;;;;;;;20.54;35.57;102019.97;5063235;28;1229;-61
2021/03/31 07:06:34;;;;;;;;;;;;;;;20.27;36.11;102015.44;5097358;28;910;-60
2021/03/31 07:09:00;;;;;;;;;;;;;;;20.27;35.87;102015.44;5078906;28;815;-61
2021/03/31 07:11:41;;;;;;;;;;;;;;;20.85;34.93;102019.00;5079217;28;855;-53
2021/03/31 07:14:07;;;;;;;;;;;;;;;20.06;36.58;102015.31;5097924;28;714;-60
2021/03/31 07:16:32;;;;;;;;;;;;;;;20.09;36.78;102014.78;5097997;28;959;-59
2021/03/31 07:18:58;;;;;;;;;;;;;;;20.93;35.22;102012.13;5117736;28;1913;-60
2021/03/31 07:21:24;;;;;;;;;;;;;;;20.94;35.14;102001.88;5117530;28;755;-51
2021/03/31 07:23:50;;;;;;;;;;;;;;;20.89;35.63;102010.16;5116952;28;743;-54
2021/03/31 07:26:18;;;;;;;;;;;;;;;21.50;34.28;102010.25;5117463;28;779;-59
2021/03/31 07:28:43;;;;;;;;;;;;;;;21.68;34.20;102005.25;5099289;28;795;-54
2021/03/31 07:31:09;;;;;;;;;;;;;;;20.81;35.58;102004.06;5098485;28;807;-57
2021/03/31 07:33:36;;;;;;;;;;;;;;;20.59;36.06;102006.16;5117060;28;950;-59
2021/03/31 07:36:02;;;;;;;;;;;;;;;21.32;34.81;102005.22;5117268;28;822;-54
2021/03/31 07:38:27;;;;;;;;;;;;;;;20.95;35.27;101998.00;5098339;28;1969;-59
2021/03/31 07:40:53;;;;;;;;;;;;;;;20.73;35.76;101996.28;5098424;28;893;-64
2021/03/31 07:43:34;;;;;;;;;;;;;;;20.29;36.49;102002.19;5099128;28;878;-60
2021/03/31 07:46:04;;;;;;;;;;;;;;;20.42;36.47;102004.44;5116624;28;838;-61
2021/03/31 07:48:29;;;;;;;;;;;;;;;21.17;34.91;102000.53;5116588;28;1006;-61
2021/03/31 07:50:55;;;;;;;;;;;;;;;-147.43;100.00;63088.53;5098760;28;1135;-59
2021/03/31 07:53:23;;;;;;;;;;;;;;;-147.43;100.00;63088.53;5116523;28;763;-56
2021/03/31 07:55:49;;;;;;;;;;;;;;;-147.43;100.00;63088.53;5116978;28;799;-55
2021/03/31 07:58:25;;;;;;;;;;;;;;;-147.43;100.00;63088.53;5116895;28;1917;-60
2021/03/31 08:00:53;;;;;;;;;;;;;;;-147.43;100.00;63088.53;5116586;28;821;-58
2021/03/31 08:03:20;;;;;;;;;;;;;;;-147.43;100.00;63088.53;5116699;28;1013;-65
2021/03/31 08:06:04;;;;;;;;;;;;;;;-147.43;100.00;63088.53;5098612;28;1336;-52
2021/03/31 08:08:30;;;;;;;;;;;;;;;-147.43;100.00;63088.53;5116537;28;823;-61
2021/03/31 08:10:56;;;;;;;;;;;;;;;-147.43;100.00;63088.53;5098626;28;1138;-62
2021/03/31 08:13:24;;;;;;;;;;;;;;;-147.43;100.00;63088.53;5098250;28;1118;-55
2021/03/31 08:15:50;;;;;;;;;;;;;;;-147.43;100.00;63088.53;5116411;28;739;-60
2021/03/31 08:18:15;;;;;;;;;;;;;;;-147.43;100.00;63088.53;5115990;28;1990;-63
2021/03/31 08:20:40;;;;;;;;;;;;;;;-147.43;100.00;63088.53;5097967;28;843;-64
2021/03/31 08:23:06;;;;;;;;;;;;;;;-147.43;100.00;63088.53;5116389;28;760;-61
2021/03/31 08:25:32;;;;;;;;;;;;;;;-147.43;100.00;63088.53;5116801;28;739;-62
2021/03/31 08:28:02;;;;;;;;;;;;;;;-147.43;100.00;63088.53;5116754;28;831;-63
2021/03/31 08:30:27;;;;;;;;;;;;;;;-147.43;100.00;63088.53;5116542;28;735;-64
2021/03/31 08:32:53;;;;;;;;;;;;;;;-147.43;100.00;63088.53;5115971;28;970;-62
2021/03/31 08:35:20;;;;;;;;;;;;;;;-147.43;100.00;63088.53;5116347;28;739;-62
2021/03/31 08:37:47;;;;;;;;;;;;;;;-147.43;100.00;63088.53;5115997;28;1914;-62
2021/03/31 08:40:13;;;;;;;;;;;;;;;-147.43;100.00;63088.53;5123091;28;972;-64
2021/03/31 08:42:46;;;;;;;;;;;;;;;-147.43;100.00;63088.53;5137023;28;822;-63
2021/03/31 08:45:21;;;;;;;;;;;;;;;-147.43;100.00;63088.53;5136894;28;810;-60
2021/03/31 08:47:46;;;;;;;;;;;;;;;-147.43;100.00;63088.53;5124427;28;945;-65
2021/03/31 08:50:12;;;;;;;;;;;;;;;-147.43;100.00;63088.53;5119934;28;1018;-63
2021/03/31 08:52:37;;;;;;;;;;;;;;;-147.43;100.00;63088.53;5120526;28;974;-59
2021/03/31 08:55:09;;;;;;;;;;;;;;;-147.43;100.00;63088.53;5120481;28;751;-61
2021/03/31 08:57:35;;;;;;;;;;;;;;;-147.43;100.00;63088.53;5120235;28;1977;-65
2021/03/31 09:00:01;;;;;;;;;;;;;;;-147.43;100.00;63088.53;5101038;28;1982;-69
2021/03/31 09:02:28;;;;;;;;;;;;;;;-147.43;100.00;63088.53;5101131;28;1299;-64
2021/03/31 09:04:54;;;;;;;;;;;;;;;-147.43;100.00;63088.53;5120495;28;1188;-66
2021/03/31 09:07:19;;;;;;;;;;;;;;;-147.43;100.00;63088.53;5119143;28;875;-60
2021/03/31 09:09:45;;;;;;;;;;;;;;;-147.43;100.00;63088.53;5120544;28;723;-59
2021/03/31 09:12:11;;;;;;;;;;;;;;;-147.43;100.00;63088.53;5120286;28;1122;-66
2021/03/31 09:14:37;;;;;;;;;;;;;;;-147.43;100.00;63088.53;5119399;28;883;-63
2021/03/31 09:17:04;;;;;;;;;;;;;;;-147.43;100.00;63088.53;5119501;28;962;-64
2021/03/31 09:19:30;;;;;;;;;;;;;;;-147.43;100.00;63088.53;5119898;28;1905;-61
2021/03/31 09:21:56;;;;;;;;;;;;;;;-147.43;100.00;63088.53;5119503;28;795;-64
2021/03/31 09:24:23;;;;;;;;;;;;;;;-147.43;100.00;63088.53;5120147;28;763;-61
2021/03/31 09:26:55;;;;;;;;;;;;;;;-147.43;100.00;63088.53;5119997;28;933;-62
2021/03/31 09:29:21;;;;;;;;;;;;;;;-147.43;100.00;63088.53;5119211;28;767;-66
2021/03/31 09:31:47;;;;;;;;;;;;;;;-147.43;100.00;63088.53;5118680;27;1240;-63
2021/03/31 09:34:12;;;;;;;;;;;;;;;-147.43;100.00;63088.53;5124407;27;825;-61
2021/03/31 09:36:38;;;;;;;;;;;;;;;-147.43;100.00;63088.53;5118938;28;875;-65
2021/03/31 09:39:05;;;;;;;;;;;;;;;-147.43;100.00;63088.53;5108276;27;1917;-66
2021/03/31 09:41:31;;;;;;;;;;;;;;;-147.43;100.00;63088.53;5139858;27;864;-66
2021/03/31 09:43:58;;;;;;;;;;;;;;;-147.43;100.00;63088.53;5120935;27;905;-64
2021/03/31 09:46:26;;;;;;;;;;;;;;;-147.43;100.00;63088.53;5138700;27;941;-64
2021/03/31 09:48:52;;;;;;;;;;;;;;;-147.43;100.00;63088.53;5119263;28;815;-65
2021/03/31 09:51:18;;;;;;;;;;;;;;;-147.43;100.00;63088.53;5099958;28;1255;-63
2021/03/31 09:53:45;;;;;;;;;;;;;;;-147.43;100.00;63088.53;5119625;28;767;-64
2021/03/31 09:56:11;;;;;;;;;;;;;;;-147.43;100.00;63088.53;5118814;28;751;-64
2021/03/31 09:58:37;;;;;;;;;;;;;;;-147.43;100.00;63088.53;5113388;28;1909;-63
2021/03/31 10:01:02;;;;;;;;;;;;;;;-147.43;100.00;63088.53;5098986;28;1393;-63
2021/03/31 10:03:30;;;;;;;;;;;;;;;-147.43;100.00;63088.53;5118505;28;974;-64
2021/03/31 10:05:56;;;;;;;;;;;;;;;-147.43;100.00;63088.53;5100628;28;839;-63
2021/03/31 10:08:22;;;;;;;;;;;;;;;-147.43;100.00;63088.53;5118696;28;948;-63
2021/03/31 10:10:51;;;;;;;;;;;;;;;-147.43;100.00;63088.53;5118854;28;846;-64
2021/03/31 10:13:17;;;;;;;;;;;;;;;-147.43;100.00;63088.53;5099652;28;1084;-64
2021/03/31 10:15:43;;;;;;;;;;;;;;;-147.43;100.00;63088.53;5118812;28;811;-64
2021/03/31 10:18:12;;;;;;;;;;;;;;;-147.43;100.00;63088.53;5117950;28;1919;-64
2021/03/31 10:20:44;;;;;;;;;;;;;;;-147.43;100.00;63088.53;5099455;28;1162;-60
2021/03/31 10:23:22;;;;;;;;;;;;;;;-147.43;100.00;63088.53;5115513;28;1225;-66
2021/03/31 10:25:48;;;;;;;;;;;;;;;-147.43;100.00;63088.53;5130472;27;1506;-63
2021/03/31 10:28:32;;;;;;;;;;;;;;;-147.43;100.00;63088.53;5138708;27;778;-64
2021/03/31 10:31:16;;;;;;;;;;;;;;;-147.43;100.00;63088.53;5131780;27;806;-63
2021/03/31 10:33:41;;;;;;;;;;;;;;;-147.43;100.00;63088.53;5117978;28;946;-62
2021/03/31 10:36:07;;;;;;;;;;;;;;;-147.43;100.00;63088.53;5117881;28;803;-61
2021/03/31 10:39:07;;;;;;;;;;;;;;;-147.43;100.00;63088.53;5100457;28;1975;-62
2021/03/31 10:41:41;;;;;;;;;;;;;;;-147.43;100.00;63088.53;5116543;28;1457;-61
2021/03/31 10:47:11;;;;;;;;;;;;;;;-147.43;100.00;63088.53;5117657;28;942;-59
2021/03/31 10:52:07;;;;;;;;;;;;;;;-147.43;100.00;63088.53;5117491;28;1220;-61
2021/03/31 10:54:33;;;;;;;;;;;;;;;-147.43;100.00;63088.53;5118033;28;796;-64
2021/03/31 10:57:33;;;;;;;;;;;;;;;-147.43;100.00;63088.53;5117400;28;819;-65
2021/03/31 10:59:50;;;;;;;;;;;;;;;-147.43;100.00;63088.53;5114795;28;952;-58
2021/03/31 11:02:15;;;;;;;;;;;;;;;-147.43;100.00;63088.53;5099220;28;938;-62
2021/03/31 11:04:42;;;;;;;;;;;;;;;-147.43;100.00;63088.53;5117267;28;831;-60
2021/03/31 11:07:08;;;;;;;;;;;;;;;-147.43;100.00;63088.53;5117945;28;867;-60
2021/03/31 11:09:33;;;;;;;;;;;;;;;-147.43;100.00;63088.53;5117955;28;831;-58
2021/03/31 11:11:59;;;;;;;;;;;;;;;-147.43;100.00;63088.53;5117519;28;1126;-61
2021/03/31 11:14:24;;;;;;;;;;;;;;;-147.43;100.00;63088.53;5118083;28;818;-59
2021/03/31 11:16:55;;;;;;;;;;;;;;;-147.43;100.00;63088.53;5117391;28;969;-60
2021/03/31 11:27:01;;;;;;;;;;;;;;;-147.43;100.00;63088.53;5116913;28;859;-63
2021/03/31 11:29:27;;;;;;;;;;;;;;;-147.43;100.00;63088.53;5099269;28;1131;-60
2021/03/31 11:31:52;;;;;;;;;;;;;;;-147.43;100.00;63088.53;5116958;28;997;-62
2021/03/31 11:34:18;;;;;;;;;;;;;;;-147.43;100.00;63088.53;5116981;28;826;-64
2021/03/31 11:36:43;;;;;;;;;;;;;;;-147.43;100.00;63088.53;5117091;28;799;-59
2021/03/31 11:39:09;;;;;;;;;;;;;;;-147.43;100.00;63088.53;5116810;28;1963;-59
2021/03/31 11:41:35;;;;;;;;;;;;;;;-147.43;100.00;63088.53;5116899;28;822;-58
2021/03/31 11:44:00;;;;;;;;;;;;;;;-147.43;100.00;63088.53;5117269;28;735;-59
2021/03/31 11:46:26;;;;;;;;;;;;;;;-147.43;100.00;63088.53;5116422;28;993;-58
2021/03/31 11:48:51;;;;;;;;;;;;;;;-147.43;100.00;63088.53;5116911;28;865;-58
2021/03/31 11:51:16;;;;;;;;;;;;;;;-147.43;100.00;63088.53;5116962;28;1048;-58
2021/03/31 11:53:42;;;;;;;;;;;;;;;-147.43;100.00;63088.53;5117086;28;788;-59
2021/03/31 11:56:07;;;;;;;;;;;;;;;-147.43;100.00;63088.53;5116539;28;802;-58
2021/03/31 11:58:33;;;;;;;;;;;;;;;-147.43;100.00;63088.53;5116898;28;1902;-61
2021/03/31 12:00:59;;;;;;;;;;;;;;;-147.43;100.00;63088.53;5116618;28;1000;-62
2021/03/31 12:03:24;;;;;;;;;;;;;;;-147.43;100.00;63088.53;5098252;28;1005;-59
2021/03/31 12:05:49;;;;;;;;;;;;;;;-147.43;100.00;63088.53;5116599;28;1124;-63
2021/03/31 12:08:15;;;;;;;;;;;;;;;-147.43;100.00;63088.53;5123405;27;1180;-64
2021/03/31 12:10:40;;;;;;;;;;;;;;;-147.43;100.00;63088.53;5096135;28;790;-60
2021/03/31 12:13:06;;;;;;;;;;;;;;;-147.43;100.00;63088.53;5110244;28;1131;-61
2021/03/31 12:15:32;;;;;;;;;;;;;;;-147.43;100.00;63088.53;5116650;28;763;-61
2021/03/31 12:17:57;;;;;;;;;;;;;;;-147.43;100.00;63088.53;5102050;28;1909;-62
2021/03/31 12:20:23;;;;;;;;;;;;;;;-147.43;100.00;63088.53;5095838;28;838;-64
2021/03/31 12:22:49;;;;;;;;;;;;;;;-147.43;100.00;63088.53;5095831;28;826;-64
2021/03/31 12:25:15;;;;;;;;;;;;;;;-147.43;100.00;63088.53;5095570;28;763;-59
2021/03/31 12:27:40;;;;;;;;;;;;;;;-147.43;100.00;63088.53;5096039;28;810;-60
2021/03/31 12:30:07;;;;;;;;;;;;;;;-147.43;100.00;63088.53;5096147;28;778;-61
2021/03/31 12:32:33;;;;;;;;;;;;;;;-147.43;100.00;63088.53;5095531;28;974;-60
2021/03/31 12:34:58;;;;;;;;;;;;;;;-147.43;100.00;63088.53;5077982;28;795;-58
2021/03/31 12:37:24;;;;;;;;;;;;;;;-147.43;100.00;63088.53;5096237;28;1905;-64
2021/03/31 12:39:50;;;;;;;;;;;;;;;-147.43;100.00;63088.53;5096188;28;759;-61
2021/03/31 12:42:15;;;;;;;;;;;;;;;-147.43;100.00;63088.53;5095636;28;838;-61
2021/03/31 12:44:41;;;;;;;;;;;;;;;-147.43;100.00;63088.53;5096273;28;834;-62
2021/03/31 12:47:06;;;;;;;;;;;;;;;-147.43;100.00;63088.53;5077739;28;943;-62
2021/03/31 12:49:32;;;;;;;;;;;;;;;-147.43;100.00;63088.53;5095565;28;782;-61
2021/03/31 12:52:03;;;;;;;;;;;;;;;-147.43;100.00;63088.53;5095956;28;1186;-62
2021/03/31 12:54:36;;;;;;;;;;;;;;;-147.43;100.00;63088.53;5096032;28;847;-61
2021/03/31 12:57:02;;;;;;;;;;;;;;;-147.43;100.00;63088.53;5095258;28;763;-62